createdAt,value
2023-02-27T00:02:17.867Z,100600.53
2023-02-27T00:04:44.567Z,100607.41
2023-02-27T00:07:11.675Z,100595.66
2023-02-27T00:09:40.128Z,100602.69
2023-02-27T00:12:08.286Z,100599.09
2023-02-27T00:14:35.084Z,100608.94
2023-02-27T00:17:02.010Z,100612.53
2023-02-27T00:19:28.559Z,100603.03
2023-02-27T00:21:55.145Z,100600.28
2023-02-27T00:24:22.484Z,100609.19
2023-02-27T00:26:49.085Z,100602.00
2023-02-27T00:29:15.689Z,100616.34
2023-02-27T00:31:42.337Z,100621.16
2023-02-27T00:34:09.500Z,100635.41
2023-02-27T00:36:36.153Z,100625.81
2023-02-27T00:39:03.002Z,100629.41
2023-02-27T00:41:30.517Z,100624.94
2023-02-27T00:43:58.149Z,100627.44
2023-02-27T00:46:24.809Z,100646.03
2023-02-27T00:48:51.633Z,100637.09
2023-02-27T00:51:20.219Z,100648.75
2023-02-27T00:53:46.785Z,100653.03
2023-02-27T00:56:13.344Z,100657.22
2023-02-27T00:58:42.945Z,100652.69
2023-02-27T01:01:09.698Z,100638.50
2023-02-27T01:03:36.315Z,100659.56
2023-02-27T01:06:02.958Z,100675.50
2023-02-27T01:08:29.647Z,100669.34
2023-02-27T01:10:56.399Z,100666.91
2023-02-27T01:13:23.938Z,100684.72
2023-02-27T01:15:50.632Z,100688.56
2023-02-27T01:18:17.373Z,100706.66
2023-02-27T01:20:44.068Z,100694.41
2023-02-27T01:23:10.716Z,100680.88
2023-02-27T01:25:37.366Z,100691.91
2023-02-27T01:28:03.968Z,100693.03
2023-02-27T01:30:30.556Z,100697.56
2023-02-27T01:32:57.154Z,100691.06
2023-02-27T01:35:23.630Z,100682.22
2023-02-27T01:37:50.229Z,100693.03
2023-02-27T01:40:16.998Z,100680.69
2023-02-27T01:42:43.563Z,100683.53
2023-02-27T01:45:29.108Z,100686.25
2023-02-27T01:48:06.725Z,100680.25
2023-02-27T01:50:35.187Z,100684.97
2023-02-27T01:53:02.277Z,100679.75
2023-02-27T01:55:31.559Z,100683.25
2023-02-27T01:57:58.350Z,100693.13
2023-02-27T02:00:25.482Z,100686.94
2023-02-27T02:03:31.049Z,100684.41
2023-02-27T02:05:58.725Z,100699.63
2023-02-27T02:08:27.353Z,100695.16
2023-02-27T02:10:55.778Z,100703.03
2023-02-27T02:13:22.578Z,100694.81
2023-02-27T02:16:09.281Z,100695.41
2023-02-27T02:18:58.182Z,100708.34
2023-02-27T02:21:52.311Z,100722.50
2023-02-27T02:24:37.243Z,100730.53
2023-02-27T02:27:40.454Z,100740.91
2023-02-27T02:30:22.490Z,100733.78
2023-02-27T02:33:15.257Z,100736.44
2023-02-27T02:36:03.427Z,100722.38
2023-02-27T02:38:35.623Z,100746.06
2023-02-27T02:41:15.660Z,100746.91
2023-02-27T02:43:51.103Z,100752.13
2023-02-27T02:46:47.816Z,100764.38
2023-02-27T02:49:21.734Z,100759.91
2023-02-27T02:52:02.915Z,100759.16
2023-02-27T02:54:41.046Z,100753.06
2023-02-27T02:57:16.420Z,100761.97
2023-02-27T03:00:07.341Z,100777.47
2023-02-27T03:02:42.644Z,100766.41
2023-02-27T03:05:13.885Z,100771.09
2023-02-27T03:07:44.553Z,100774.78
2023-02-27T03:10:28.433Z,100774.97
2023-02-27T03:13:06.675Z,100780.25
2023-02-27T03:15:48.731Z,100787.44
2023-02-27T03:18:20.753Z,100780.59
2023-02-27T03:21:16.912Z,100772.94
2023-02-27T03:23:46.253Z,100786.38
2023-02-27T03:26:17.333Z,100782.09
2023-02-27T03:29:07.951Z,100791.84
2023-02-27T03:31:41.237Z,100816.19
2023-02-27T03:34:37.784Z,100795.72
2023-02-27T03:37:14.978Z,100796.59
2023-02-27T03:39:51.016Z,100812.44
2023-02-27T03:42:21.341Z,100809.00
2023-02-27T03:45:17.164Z,100802.81
2023-02-27T03:47:43.729Z,100807.13
2023-02-27T03:50:10.657Z,100829.19
2023-02-27T03:52:37.514Z,100808.81
2023-02-27T03:55:14.785Z,100822.72
2023-02-27T03:57:41.737Z,100837.44
2023-02-27T04:00:12.086Z,100842.06
2023-02-27T04:02:41.569Z,100835.22
2023-02-27T04:05:09.932Z,100860.72
2023-02-27T04:07:52.944Z,100847.38
2023-02-27T04:10:47.164Z,100865.19
2023-02-27T04:13:28.758Z,100868.75
2023-02-27T04:16:15.766Z,100849.25
2023-02-27T04:19:24.695Z,100885.38
2023-02-27T04:22:23.542Z,100884.22
2023-02-27T04:25:29.409Z,100882.50
2023-02-27T04:28:05.803Z,100883.59
2023-02-27T04:30:47.596Z,100924.25
2023-02-27T04:33:32.340Z,100902.16
2023-02-27T04:36:13.024Z,100888.09
2023-02-27T04:39:00.967Z,100885.63
2023-02-27T04:41:56.885Z,100880.22
2023-02-27T04:44:24.352Z,100885.47
2023-02-27T04:46:52.449Z,100901.56
2023-02-27T04:49:24.786Z,100884.94
2023-02-27T04:51:56.241Z,100893.72
2023-02-27T04:54:29.030Z,100886.56
2023-02-27T04:56:58.255Z,100900.78
2023-02-27T04:59:27.828Z,100893.81
2023-02-27T05:01:58.143Z,100905.19
2023-02-27T05:04:27.460Z,100862.22
2023-02-27T05:06:55.737Z,100908.50
2023-02-27T05:09:38.708Z,100912.00
2023-02-27T05:12:11.461Z,100919.13
2023-02-27T05:14:45.681Z,100933.47
2023-02-27T05:17:17.031Z,100929.16
2023-02-27T05:19:44.008Z,100934.69
2023-02-27T05:22:16.640Z,100938.19
2023-02-27T05:24:52.265Z,100926.69
2023-02-27T05:27:28.444Z,100936.50
2023-02-27T05:30:29.200Z,100944.59
2023-02-27T05:33:02.338Z,100939.94
2023-02-27T05:35:35.972Z,100952.97
2023-02-27T05:38:07.003Z,100953.69
2023-02-27T05:40:39.780Z,100925.34
2023-02-27T05:43:10.615Z,100934.09
2023-02-27T05:45:39.172Z,100934.88
2023-02-27T05:48:15.121Z,100922.75
2023-02-27T05:50:43.447Z,100923.66
2023-02-27T05:53:14.438Z,100921.66
2023-02-27T05:55:51.687Z,100926.75
2023-02-27T05:58:27.024Z,100934.50
2023-02-27T06:01:01.727Z,100931.59
2023-02-27T06:03:29.147Z,100942.22
2023-02-27T06:05:57.782Z,100921.13
2023-02-27T06:08:24.924Z,100921.28
2023-02-27T06:10:51.666Z,100925.88
2023-02-27T06:13:18.667Z,100936.19
2023-02-27T06:15:45.779Z,100932.19
2023-02-27T06:18:13.078Z,100939.06
2023-02-27T06:20:47.643Z,100942.25
2023-02-27T06:23:14.279Z,100944.72
2023-02-27T06:25:42.361Z,100949.91
2023-02-27T06:28:09.804Z,100975.28
2023-02-27T06:30:36.831Z,100937.81
2023-02-27T06:36:12.365Z,100949.63
2023-02-27T06:39:24.142Z,100939.78
2023-02-27T06:42:15.571Z,100964.28
2023-02-27T06:44:43.253Z,100970.19
2023-02-27T06:47:09.946Z,100959.44
2023-02-27T06:49:38.048Z,100962.84
2023-02-27T06:52:05.245Z,100969.72
2023-02-27T06:54:31.787Z,100959.88
2023-02-27T06:56:58.397Z,100969.22
2023-02-27T06:59:25.096Z,100980.22
2023-02-27T07:01:51.820Z,100985.47
2023-02-27T07:04:18.486Z,100995.22
2023-02-27T07:07:36.211Z,100997.19
2023-02-27T07:09:32.272Z,100983.13
2023-02-27T07:11:59.767Z,100994.94
2023-02-27T07:14:26.313Z,100997.53
2023-02-27T07:16:55.697Z,100994.69
2023-02-27T07:19:26.355Z,101007.81
2023-02-27T07:21:53.099Z,101000.63
2023-02-27T07:24:19.719Z,101002.34
2023-02-27T07:26:47.267Z,101006.09
2023-02-27T07:29:14.948Z,101004.38
2023-02-27T07:31:41.811Z,101007.13
2023-02-27T07:34:09.723Z,101014.84
2023-02-27T07:36:36.245Z,101024.78
2023-02-27T07:39:03.716Z,101018.84
2023-02-27T07:41:31.208Z,101019.88
2023-02-27T07:44:05.675Z,101020.72
2023-02-27T07:46:32.587Z,101021.59
2023-02-27T07:49:00.373Z,101027.00
2023-02-27T07:51:26.962Z,101028.69
2023-02-27T07:53:54.101Z,101041.13
2023-02-27T07:56:20.754Z,101027.06
2023-02-27T07:58:56.374Z,101030.59
2023-02-27T08:04:08.211Z,101050.34
2023-02-27T08:06:34.744Z,101029.69
2023-02-27T08:09:01.387Z,101029.53
2023-02-27T08:11:28.241Z,101025.78
2023-02-27T08:14:00.583Z,101022.94
2023-02-27T08:16:30.031Z,101018.56
2023-02-27T08:18:57.383Z,101011.53
2023-02-27T08:21:24.042Z,101016.59
2023-02-27T08:23:51.521Z,101019.69
2023-02-27T08:26:18.153Z,101024.69
2023-02-27T08:28:45.856Z,101015.53
2023-02-27T08:31:12.879Z,101022.38
2023-02-27T08:33:40.113Z,101005.31
2023-02-27T08:36:08.107Z,101007.66
2023-02-27T08:38:34.821Z,101021.34
2023-02-27T08:41:03.089Z,101009.25
2023-02-27T08:43:29.723Z,100977.94
2023-02-27T08:45:56.341Z,101002.03
2023-02-27T08:48:24.848Z,101003.78
2023-02-27T08:50:51.834Z,101012.19
2023-02-27T08:53:18.547Z,101017.16
2023-02-27T08:55:49.265Z,101028.38
2023-02-27T08:58:17.846Z,101008.06
2023-02-27T09:00:44.718Z,101025.81
2023-02-27T09:03:11.534Z,101024.03
2023-02-27T09:05:38.457Z,101015.06
2023-02-27T09:08:05.643Z,101028.31
2023-02-27T09:10:33.443Z,101032.50
2023-02-27T09:13:00.464Z,101045.63
2023-02-27T09:15:28.427Z,101040.63
2023-02-27T09:17:58.394Z,101032.31
2023-02-27T09:20:25.549Z,101022.06
2023-02-27T09:22:52.141Z,101033.69
2023-02-27T09:25:19.551Z,101046.09
2023-02-27T09:27:46.171Z,101041.47
2023-02-27T09:30:13.151Z,101028.22
2023-02-27T09:32:40.660Z,101021.19
2023-02-27T09:35:09.375Z,101032.53
2023-02-27T09:37:36.574Z,101034.16
2023-02-27T09:40:05.574Z,101047.88
2023-02-27T09:42:45.466Z,101038.25
2023-02-27T09:45:26.313Z,101009.06
2023-02-27T09:48:29.993Z,101030.09
2023-02-27T09:50:57.392Z,101060.84
2023-02-27T09:53:27.187Z,101071.66
2023-02-27T09:55:55.149Z,101072.38
2023-02-27T09:58:34.633Z,101057.28
2023-02-27T10:01:07.088Z,101061.28
2023-02-27T10:03:39.503Z,101064.50
2023-02-27T10:06:21.369Z,101075.09
2023-02-27T10:09:14.308Z,101073.97
2023-02-27T10:12:22.922Z,101073.19
2023-02-27T10:14:57.822Z,101066.56
2023-02-27T10:17:29.130Z,101068.88
2023-02-27T10:19:56.427Z,101055.78
2023-02-27T10:22:35.605Z,101087.38
2023-02-27T10:25:29.758Z,101072.69
2023-02-27T10:28:05.698Z,101078.56
2023-02-27T10:30:34.978Z,101078.75
2023-02-27T10:33:17.889Z,101071.50
2023-02-27T10:35:45.532Z,101112.94
2023-02-27T10:38:28.022Z,101094.19
2023-02-27T10:40:55.473Z,101086.19
2023-02-27T10:43:22.803Z,101069.94
2023-02-27T10:45:49.418Z,101085.59
2023-02-27T10:48:16.665Z,101097.41
2023-02-27T10:50:45.618Z,101109.22
2023-02-27T10:53:23.699Z,101116.19
2023-02-27T10:56:05.025Z,101121.38
2023-02-27T10:58:35.048Z,101122.66
2023-02-27T11:01:05.009Z,101133.22
2023-02-27T11:03:42.400Z,101130.22
2023-02-27T11:06:27.936Z,101126.97
2023-02-27T11:09:18.066Z,101130.22
2023-02-27T11:11:44.705Z,101146.56
2023-02-27T11:14:25.126Z,101125.72
2023-02-27T11:16:54.038Z,101138.34
2023-02-27T11:19:35.661Z,101149.19
2023-02-27T11:22:11.587Z,101130.53
2023-02-27T11:24:38.299Z,101128.22
2023-02-27T11:27:26.728Z,101139.81
2023-02-27T11:30:03.906Z,101147.47
2023-02-27T11:32:46.204Z,101152.09
2023-02-27T11:35:23.784Z,101131.50
2023-02-27T11:37:52.294Z,101131.31
2023-02-27T11:40:20.679Z,101142.38
2023-02-27T11:42:51.686Z,101136.88
2023-02-27T11:46:04.228Z,101144.56
2023-02-27T11:48:21.022Z,101136.91
2023-02-27T11:50:52.028Z,101154.41
2023-02-27T11:53:27.623Z,101143.25
2023-02-27T11:55:58.335Z,101151.06
2023-02-27T11:58:28.317Z,101158.44
2023-02-27T12:01:01.412Z,101157.53
2023-02-27T12:04:00.644Z,101136.63
2023-02-27T12:06:31.708Z,101138.09
2023-02-27T12:09:01.188Z,101154.00
2023-02-27T12:11:32.531Z,101150.03
2023-02-27T12:14:23.098Z,101146.94
2023-02-27T12:17:21.785Z,101170.84
2023-02-27T12:19:52.823Z,101173.31
2023-02-27T12:22:32.281Z,101166.31
2023-02-27T12:25:34.464Z,101151.53
2023-02-27T12:28:09.264Z,101154.63
2023-02-27T12:31:05.727Z,101145.69
2023-02-27T12:33:48.866Z,101144.66
2023-02-27T12:36:15.483Z,101129.34
2023-02-27T12:38:43.365Z,101126.34
2023-02-27T12:41:19.243Z,101119.94
2023-02-27T12:44:14.219Z,101107.75
2023-02-27T12:47:04.850Z,101119.56
2023-02-27T12:50:11.121Z,101121.88
2023-02-27T12:52:43.927Z,101147.75
2023-02-27T12:55:29.215Z,101167.47
2023-02-27T12:58:15.270Z,101156.06
2023-02-27T13:01:02.898Z,101158.63
2023-02-27T13:03:41.369Z,101156.63
2023-02-27T13:06:23.125Z,101164.25
2023-02-27T13:09:01.549Z,101149.66
2023-02-27T13:11:53.024Z,101156.97
2023-02-27T13:14:44.040Z,101140.91
2023-02-27T13:17:18.146Z,101142.53
2023-02-27T13:19:51.504Z,101137.63
2023-02-27T13:22:40.460Z,101133.19
2023-02-27T13:25:14.238Z,101152.06
2023-02-27T13:27:55.796Z,101148.06
2023-02-27T13:30:34.272Z,101163.78
2023-02-27T13:33:25.726Z,101134.97
2023-02-27T13:36:04.602Z,101154.19
2023-02-27T13:38:34.619Z,101153.34
2023-02-27T13:41:22.992Z,101143.38
2023-02-27T13:43:53.447Z,101157.84
2023-02-27T13:46:28.506Z,101156.41
2023-02-27T13:49:28.233Z,101192.22
2023-02-27T13:51:58.846Z,101171.41
2023-02-27T13:54:27.019Z,101165.13
2023-02-27T13:56:59.557Z,101170.41
2023-02-27T13:59:31.201Z,101191.00
2023-02-27T14:02:12.929Z,101205.47
2023-02-27T14:04:51.895Z,101189.59
2023-02-27T14:07:21.804Z,101200.56
2023-02-27T14:09:51.954Z,101211.13
2023-02-27T14:12:46.167Z,101204.66
2023-02-27T14:15:22.396Z,101205.91
2023-02-27T14:17:54.429Z,101218.22
2023-02-27T14:20:24.438Z,101204.34
2023-02-27T14:23:15.634Z,101203.63
2023-02-27T14:25:53.734Z,101203.19
2023-02-27T14:28:44.690Z,101195.78
2023-02-27T14:34:35.739Z,101202.72
2023-02-27T14:37:07.234Z,101211.38
2023-02-27T14:39:36.024Z,101196.50
2023-02-27T14:42:15.627Z,101213.63
2023-02-27T14:44:47.533Z,101202.88
2023-02-27T14:47:29.895Z,101198.72
2023-02-27T14:49:56.609Z,101190.03
2023-02-27T14:52:29.851Z,101202.88
2023-02-27T14:55:20.175Z,101203.72
2023-02-27T14:58:08.582Z,101201.81
2023-02-27T15:00:39.420Z,101208.97
2023-02-27T15:03:16.985Z,101227.56
2023-02-27T15:05:43.762Z,101212.19
2023-02-27T15:08:23.885Z,101206.34
2023-02-27T15:10:53.558Z,101207.13
2023-02-27T15:13:26.342Z,101197.31
2023-02-27T15:16:20.674Z,101198.28
2023-02-27T15:18:58.259Z,101207.41
2023-02-27T15:21:27.973Z,101220.81
2023-02-27T15:24:02.194Z,101209.28
2023-02-27T15:26:30.585Z,101220.09
2023-02-27T15:28:59.805Z,101239.88
2023-02-27T15:31:30.024Z,101235.59
2023-02-27T15:33:59.822Z,101231.13
2023-02-27T15:36:29.347Z,101233.88
2023-02-27T15:39:15.334Z,101235.66
2023-02-27T15:41:48.593Z,101243.84
2023-02-27T15:44:19.827Z,101241.34
2023-02-27T15:46:46.741Z,101256.56
2023-02-27T15:49:17.166Z,101252.97
2023-02-27T15:51:44.585Z,101253.03
2023-02-27T15:54:11.624Z,101249.25
2023-02-27T15:56:39.105Z,101250.88
2023-02-27T15:59:05.729Z,101256.06
2023-02-27T16:01:34.973Z,101250.53
2023-02-27T16:04:06.917Z,101266.72
2023-02-27T16:06:39.434Z,101260.69
2023-02-27T16:09:38.999Z,101272.38
2023-02-27T16:12:22.482Z,101268.75
2023-02-27T16:14:52.787Z,101267.06
2023-02-27T16:17:33.658Z,101265.66
2023-02-27T16:20:02.438Z,101255.38
2023-02-27T16:22:31.393Z,101263.53
2023-02-27T16:25:11.856Z,101276.75
2023-02-27T16:27:39.295Z,101281.47
2023-02-27T16:30:10.909Z,101287.91
2023-02-27T16:32:41.526Z,101299.50
2023-02-27T16:35:16.875Z,101285.16
2023-02-27T16:37:45.184Z,101317.75
2023-02-27T16:40:15.954Z,101305.28
2023-02-27T16:42:43.586Z,101310.94
2023-02-27T16:45:25.128Z,101311.19
2023-02-27T16:47:54.895Z,101321.66
2023-02-27T16:50:22.467Z,101319.72
2023-02-27T16:52:49.145Z,101309.97
2023-02-27T16:55:15.767Z,101313.22
2023-02-27T16:57:42.273Z,101324.06
2023-02-27T17:00:12.880Z,101329.38
2023-02-27T17:02:39.427Z,101324.06
2023-02-27T17:05:06.538Z,101326.00
2023-02-27T17:07:33.148Z,101335.09
2023-02-27T17:10:00.377Z,101328.06
2023-02-27T17:12:26.975Z,101329.84
2023-02-27T17:14:53.508Z,101334.06
2023-02-27T17:17:20.262Z,101333.06
2023-02-27T17:19:51.034Z,101344.72
2023-02-27T17:22:17.737Z,101342.06
2023-02-27T17:24:44.496Z,101360.63
2023-02-27T17:27:11.102Z,101347.31
2023-02-27T17:29:38.987Z,101364.06
2023-02-27T17:32:06.548Z,101358.75
2023-02-27T17:34:33.268Z,101365.94
2023-02-27T17:36:59.807Z,101361.47
2023-02-27T17:39:26.380Z,101365.69
2023-02-27T17:41:54.378Z,101368.22
2023-02-27T17:44:21.519Z,101368.91
2023-02-27T17:46:48.264Z,101361.78
2023-02-27T17:49:14.919Z,101363.75
2023-02-27T17:51:41.480Z,101374.31
2023-02-27T17:54:08.251Z,101376.03
2023-02-27T17:56:36.734Z,101378.44
2023-02-27T17:59:03.991Z,101397.09
2023-02-27T18:01:30.603Z,101406.75
2023-02-27T18:03:57.543Z,101404.75
2023-02-27T18:06:24.728Z,101405.72
2023-02-27T18:08:52.054Z,101421.75
2023-02-27T18:11:20.971Z,101411.28
2023-02-27T18:13:48.229Z,101417.47
2023-02-27T18:16:15.375Z,101419.34
2023-02-27T18:18:42.798Z,101413.94
2023-02-27T18:21:19.926Z,101416.63
2023-02-27T18:23:49.534Z,101426.16
2023-02-27T18:26:30.595Z,101419.19
2023-02-27T18:29:00.431Z,101425.59
2023-02-27T18:31:39.390Z,101432.13
2023-02-27T18:34:07.820Z,101434.16
2023-02-27T18:36:35.581Z,101432.59
2023-02-27T18:39:04.936Z,101446.78
2023-02-27T18:41:32.199Z,101447.63
2023-02-27T18:43:58.738Z,101452.00
2023-02-27T18:46:25.389Z,101459.22
2023-02-27T18:48:52.106Z,101449.75
2023-02-27T18:51:19.098Z,101435.81
2023-02-27T18:53:48.146Z,101426.19
2023-02-27T18:56:16.580Z,101448.44
2023-02-27T18:58:43.421Z,101444.75
2023-02-27T19:01:20.635Z,101449.03
2023-02-27T19:03:47.385Z,101452.50
2023-02-27T19:06:14.083Z,101448.03
2023-02-27T19:08:42.601Z,101455.16
2023-02-27T19:11:09.261Z,101447.00
2023-02-27T19:13:35.790Z,101451.31
2023-02-27T19:16:06.357Z,101450.53
2023-02-27T19:18:33.169Z,101444.50
2023-02-27T19:21:04.469Z,101456.97
2023-02-27T19:23:31.205Z,101442.88
2023-02-27T19:25:59.516Z,101461.66
2023-02-27T19:28:26.305Z,101440.28
2023-02-27T19:30:54.946Z,101449.19
2023-02-27T19:33:21.660Z,101446.53
2023-02-27T19:35:48.409Z,101453.53
2023-02-27T19:38:14.998Z,101452.50
2023-02-27T19:40:41.587Z,101461.41
2023-02-27T19:43:08.510Z,101445.34
2023-02-27T19:45:35.123Z,101452.31
2023-02-27T19:48:01.900Z,101456.66
2023-02-27T19:50:30.234Z,101463.75
2023-02-27T19:52:56.802Z,101460.31
2023-02-27T19:55:23.425Z,101473.63
2023-02-27T19:57:50.065Z,101461.34
2023-02-27T20:00:17.593Z,101475.59
2023-02-27T20:02:44.205Z,101473.78
2023-02-27T20:05:12.147Z,101487.16
2023-02-27T20:07:39.307Z,101489.84
2023-02-27T20:10:07.279Z,101494.13
2023-02-27T20:12:34.204Z,101503.69
2023-02-27T20:15:08.185Z,101513.41
2023-02-27T20:17:35.228Z,101513.25
2023-02-27T20:20:02.196Z,101510.38
2023-02-27T20:22:28.727Z,101515.59
2023-02-27T20:24:56.398Z,101510.28
2023-02-27T20:27:23.055Z,101522.66
2023-02-27T20:29:57.422Z,101520.94
2023-02-27T20:32:24.675Z,101512.03
2023-02-27T20:34:51.874Z,101551.78
2023-02-27T20:37:19.556Z,101535.75
2023-02-27T20:39:46.538Z,101543.72
2023-02-27T20:42:14.120Z,101559.72
2023-02-27T20:44:41.663Z,101577.41
2023-02-27T20:47:09.081Z,101552.75
2023-02-27T20:49:36.513Z,101570.38
2023-02-27T20:52:03.360Z,101569.59
2023-02-27T20:54:30.045Z,101570.75
2023-02-27T20:56:56.578Z,101577.09
2023-02-27T20:59:25.145Z,101567.38
2023-02-27T21:01:52.860Z,101587.00
2023-02-27T21:04:42.547Z,101588.75
2023-02-27T21:07:18.637Z,101593.00
2023-02-27T21:09:45.411Z,101591.97
2023-02-27T21:12:12.549Z,101597.38
2023-02-27T21:14:39.369Z,101586.88
2023-02-27T21:17:06.060Z,101581.38
2023-02-27T21:19:32.675Z,101587.72
2023-02-27T21:21:59.410Z,101574.78
2023-02-27T21:24:26.055Z,101576.66
2023-02-27T21:26:52.602Z,101590.75
2023-02-27T21:29:20.780Z,101589.78
2023-02-27T21:31:49.082Z,101575.44
2023-02-27T21:34:22.255Z,101595.78
2023-02-27T21:36:49.605Z,101588.81
2023-02-27T21:39:28.730Z,101569.56
2023-02-27T21:41:55.356Z,101574.97
2023-02-27T21:44:25.121Z,101583.78
2023-02-27T21:46:53.228Z,101577.38
2023-02-27T21:49:22.945Z,101578.91
2023-02-27T21:51:50.036Z,101578.72
2023-02-27T21:54:18.733Z,101588.75
2023-02-27T21:56:46.686Z,101568.53
2023-02-27T21:59:14.762Z,101598.47
2023-02-27T22:01:41.973Z,101589.53
2023-02-27T22:04:08.741Z,101571.75
2023-02-27T22:06:35.395Z,101570.91
2023-02-27T22:09:04.875Z,101584.22
2023-02-27T22:11:32.746Z,101559.31
2023-02-27T22:13:59.570Z,101559.16
2023-02-27T22:16:26.201Z,101546.69
2023-02-27T22:18:53.088Z,101551.97
2023-02-27T22:21:22.751Z,101543.81
2023-02-27T22:23:50.187Z,101545.63
2023-02-27T22:26:24.220Z,101543.66
2023-02-27T22:28:51.900Z,101541.84
2023-02-27T22:31:33.321Z,101525.94
2023-02-27T22:34:03.094Z,101517.16
2023-02-27T22:36:31.445Z,101524.25
2023-02-27T22:38:58.494Z,101523.22
2023-02-27T22:41:28.175Z,101509.84
2023-02-27T22:43:56.246Z,101515.94
2023-02-27T22:46:29.296Z,101502.53
2023-02-27T22:48:57.457Z,101497.19
2023-02-27T22:51:28.604Z,101497.19
2023-02-27T22:54:00.401Z,101501.75
2023-02-27T22:56:27.561Z,101502.63
2023-02-27T22:58:54.278Z,101515.84
2023-02-27T23:01:25.505Z,101497.13
2023-02-27T23:03:53.490Z,101498.75
2023-02-27T23:06:23.854Z,101496.03
2023-02-27T23:08:53.423Z,101499.66
2023-02-27T23:11:20.576Z,101504.97
2023-02-27T23:13:48.465Z,101499.47
2023-02-27T23:16:15.596Z,101502.91
2023-02-27T23:18:47.726Z,101514.34
2023-02-27T23:21:14.905Z,101518.72
2023-02-27T23:23:41.882Z,101515.13
2023-02-27T23:26:08.412Z,101520.47
2023-02-27T23:28:35.898Z,101522.81
2023-02-27T23:31:03.474Z,101533.47
2023-02-27T23:33:30.240Z,101522.75
2023-02-27T23:35:59.923Z,101521.72
2023-02-27T23:38:27.393Z,101536.75
2023-02-27T23:40:54.232Z,101522.81
2023-02-27T23:43:39.685Z,101531.66
2023-02-27T23:46:08.160Z,101544.13
2023-02-27T23:48:35.234Z,101546.94
2023-02-27T23:51:03.480Z,101544.38
2023-02-27T23:53:30.407Z,101544.28
2023-02-27T23:55:56.994Z,101523.91
2023-02-27T23:58:24.809Z,101523.28
